sensor_id;sensor_type;location;lat;lon;timestamp;P1;durP1;ratioP1;P2;durP2;ratioP2
253;SDS011;590;48.772;8.846;2022-10-31T00:01:17;4.17;;;3.93;;
253;SDS011;590;48.772;8.846;2022-10-31T00:03:46;4.77;;;4.47;;
253;SDS011;590;48.772;8.846;2022-10-31T00:06:15;4.70;;;4.40;;
253;SDS011;590;48.772;8.846;2022-10-31T00:08:44;3.47;;;3.33;;
253;SDS011;590;48.772;8.846;2022-10-31T00:11:13;5.50;;;5.17;;
253;SDS011;590;48.772;8.846;2022-10-31T00:13:41;6.03;;;5.03;;
253;SDS011;590;48.772;8.846;2022-10-31T00:16:13;4.10;;;3.90;;
253;SDS011;590;48.772;8.846;2022-10-31T00:18:42;5.33;;;4.43;;
253;SDS011;590;48.772;8.846;2022-10-31T00:21:10;6.00;;;4.90;;
253;SDS011;590;48.772;8.846;2022-10-31T00:23:38;5.03;;;4.73;;
253;SDS011;590;48.772;8.846;2022-10-31T00:26:06;4.80;;;4.50;;
253;SDS011;590;48.772;8.846;2022-10-31T00:28:35;4.77;;;4.47;;
253;SDS011;590;48.772;8.846;2022-10-31T00:31:04;5.87;;;5.57;;
253;SDS011;590;48.772;8.846;2022-10-31T00:33:34;5.13;;;4.83;;
253;SDS011;590;48.772;8.846;2022-10-31T00:36:04;4.53;;;4.23;;
253;SDS011;590;48.772;8.846;2022-10-31T00:38:33;7.40;;;4.73;;
253;SDS011;590;48.772;8.846;2022-10-31T00:41:01;4.80;;;4.50;;
253;SDS011;590;48.772;8.846;2022-10-31T00:43:29;4.87;;;4.40;;
253;SDS011;590;48.772;8.846;2022-10-31T00:45:58;5.20;;;4.90;;
253;SDS011;590;48.772;8.846;2022-10-31T00:48:26;4.43;;;4.13;;
253;SDS011;590;48.772;8.846;2022-10-31T00:50:54;7.43;;;4.13;;
253;SDS011;590;48.772;8.846;2022-10-31T00:53:22;4.23;;;3.97;;
253;SDS011;590;48.772;8.846;2022-10-31T00:55:50;5.17;;;4.60;;
253;SDS011;590;48.772;8.846;2022-10-31T00:58:18;5.40;;;5.10;;
253;SDS011;590;48.772;8.846;2022-10-31T01:00:46;6.00;;;5.20;;
253;SDS011;590;48.772;8.846;2022-10-31T01:03:23;5.67;;;5.17;;
253;SDS011;590;48.772;8.846;2022-10-31T01:05:56;6.80;;;4.97;;
253;SDS011;590;48.772;8.846;2022-10-31T01:08:25;5.33;;;5.03;;
253;SDS011;590;48.772;8.846;2022-10-31T01:11:00;5.23;;;4.93;;
253;SDS011;590;48.772;8.846;2022-10-31T01:13:30;4.87;;;4.60;;
253;SDS011;590;48.772;8.846;2022-10-31T01:15:59;4.57;;;4.30;;
253;SDS011;590;48.772;8.846;2022-10-31T01:18:29;4.90;;;4.43;;
253;SDS011;590;48.772;8.846;2022-10-31T01:21:00;4.87;;;4.57;;
253;SDS011;590;48.772;8.846;2022-10-31T01:23:30;4.60;;;4.30;;
253;SDS011;590;48.772;8.846;2022-10-31T01:26:06;5.00;;;4.70;;
253;SDS011;590;48.772;8.846;2022-10-31T01:28:36;4.77;;;4.47;;
253;SDS011;590;48.772;8.846;2022-10-31T01:31:07;5.10;;;4.80;;
253;SDS011;590;48.772;8.846;2022-10-31T01:33:37;4.33;;;4.03;;
253;SDS011;590;48.772;8.846;2022-10-31T01:36:12;4.70;;;4.40;;
253;SDS011;590;48.772;8.846;2022-10-31T01:38:42;4.70;;;4.17;;
253;SDS011;590;48.772;8.846;2022-10-31T01:41:11;4.30;;;4.00;;
253;SDS011;590;48.772;8.846;2022-10-31T01:43:44;4.80;;;4.50;;
253;SDS011;590;48.772;8.846;2022-10-31T01:46:14;4.30;;;4.00;;
253;SDS011;590;48.772;8.846;2022-10-31T01:48:46;4.97;;;4.43;;
253;SDS011;590;48.772;8.846;2022-10-31T01:51:15;5.20;;;4.87;;
253;SDS011;590;48.772;8.846;2022-10-31T01:53:47;5.80;;;4.70;;
253;SDS011;590;48.772;8.846;2022-10-31T01:56:17;5.00;;;4.70;;
253;SDS011;590;48.772;8.846;2022-10-31T01:58:45;5.70;;;5.07;;
253;SDS011;590;48.772;8.846;2022-10-31T02:01:14;5.00;;;4.70;;
253;SDS011;590;48.772;8.846;2022-10-31T02:03:45;4.60;;;4.30;;
253;SDS011;590;48.772;8.846;2022-10-31T02:06:17;5.67;;;4.53;;
253;SDS011;590;48.772;8.846;2022-10-31T02:08:53;4.10;;;3.70;;
253;SDS011;590;48.772;8.846;2022-10-31T02:11:24;5.00;;;4.70;;
253;SDS011;590;48.772;8.846;2022-10-31T02:13:53;5.37;;;5.13;;
253;SDS011;590;48.772;8.846;2022-10-31T02:16:22;4.73;;;4.43;;
253;SDS011;590;48.772;8.846;2022-10-31T02:18:51;4.53;;;4.23;;
253;SDS011;590;48.772;8.846;2022-10-31T02:21:21;4.00;;;3.80;;
253;SDS011;590;48.772;8.846;2022-10-31T02:24:09;4.63;;;4.33;;
253;SDS011;590;48.772;8.846;2022-10-31T02:26:54;4.03;;;3.83;;
253;SDS011;590;48.772;8.846;2022-10-31T02:29:41;6.10;;;4.40;;
253;SDS011;590;48.772;8.846;2022-10-31T02:32:33;4.60;;;4.13;;
253;SDS011;590;48.772;8.846;2022-10-31T02:35:11;5.53;;;5.07;;
253;SDS011;590;48.772;8.846;2022-10-31T02:37:49;4.00;;;3.80;;
253;SDS011;590;48.772;8.846;2022-10-31T02:40:25;5.17;;;4.17;;
253;SDS011;590;48.772;8.846;2022-10-31T02:42:59;4.07;;;3.87;;
253;SDS011;590;48.772;8.846;2022-10-31T02:45:33;4.87;;;4.57;;
253;SDS011;590;48.772;8.846;2022-10-31T02:48:09;4.13;;;3.90;;
253;SDS011;590;48.772;8.846;2022-10-31T02:50:41;3.43;;;3.27;;
253;SDS011;590;48.772;8.846;2022-10-31T02:53:17;6.83;;;4.60;;
253;SDS011;590;48.772;8.846;2022-10-31T02:55:54;4.10;;;3.90;;
253;SDS011;590;48.772;8.846;2022-10-31T02:58:27;3.80;;;3.60;;
253;SDS011;590;48.772;8.846;2022-10-31T03:07:34;4.00;;;3.77;;
253;SDS011;590;48.772;8.846;2022-10-31T03:10:12;4.03;;;3.83;;
253;SDS011;590;48.772;8.846;2022-10-31T03:12:48;3.80;;;3.60;;
253;SDS011;590;48.772;8.846;2022-10-31T03:15:24;4.87;;;3.87;;
253;SDS011;590;48.772;8.846;2022-10-31T03:17:57;4.20;;;3.47;;
253;SDS011;590;48.772;8.846;2022-10-31T03:20:30;4.77;;;3.80;;
253;SDS011;590;48.772;8.846;2022-10-31T03:23:06;5.50;;;4.20;;
253;SDS011;590;48.772;8.846;2022-10-31T03:25:38;3.93;;;3.80;;
253;SDS011;590;48.772;8.846;2022-10-31T03:28:08;3.10;;;2.77;;
253;SDS011;590;48.772;8.846;2022-10-31T03:30:41;6.93;;;3.67;;
253;SDS011;590;48.772;8.846;2022-10-31T03:33:12;3.90;;;3.50;;
253;SDS011;590;48.772;8.846;2022-10-31T03:35:44;3.87;;;3.60;;
253;SDS011;590;48.772;8.846;2022-10-31T03:38:17;3.40;;;3.20;;
253;SDS011;590;48.772;8.846;2022-10-31T03:40:47;3.73;;;3.50;;
253;SDS011;590;48.772;8.846;2022-10-31T03:43:19;4.13;;;3.90;;
253;SDS011;590;48.772;8.846;2022-10-31T03:45:50;3.93;;;3.73;;
253;SDS011;590;48.772;8.846;2022-10-31T03:48:18;7.93;;;4.50;;
253;SDS011;590;48.772;8.846;2022-10-31T03:50:49;4.00;;;3.77;;
253;SDS011;590;48.772;8.846;2022-10-31T03:53:29;4.60;;;3.83;;
253;SDS011;590;48.772;8.846;2022-10-31T03:56:01;3.63;;;3.43;;
253;SDS011;590;48.772;8.846;2022-10-31T03:58:35;5.47;;;3.00;;
253;SDS011;590;48.772;8.846;2022-10-31T04:01:07;4.50;;;4.20;;
253;SDS011;590;48.772;8.846;2022-10-31T04:03:41;3.57;;;3.40;;
253;SDS011;590;48.772;8.846;2022-10-31T04:06:12;3.47;;;3.10;;
253;SDS011;590;48.772;8.846;2022-10-31T04:08:45;3.43;;;3.23;;
253;SDS011;590;48.772;8.846;2022-10-31T04:11:18;4.00;;;3.80;;
253;SDS011;590;48.772;8.846;2022-10-31T04:13:49;3.70;;;3.30;;
253;SDS011;590;48.772;8.846;2022-10-31T04:16:20;4.17;;;3.70;;
253;SDS011;590;48.772;8.846;2022-10-31T04:18:50;3.60;;;3.40;;
253;SDS011;590;48.772;8.846;2022-10-31T04:21:18;3.97;;;3.77;;
253;SDS011;590;48.772;8.846;2022-10-31T04:23:47;3.70;;;3.50;;
253;SDS011;590;48.772;8.846;2022-10-31T04:26:15;3.97;;;3.77;;
253;SDS011;590;48.772;8.846;2022-10-31T04:28:43;3.73;;;3.27;;
253;SDS011;590;48.772;8.846;2022-10-31T04:31:11;5.83;;;4.00;;
253;SDS011;590;48.772;8.846;2022-10-31T04:33:40;5.93;;;3.73;;
253;SDS011;590;48.772;8.846;2022-10-31T04:36:08;6.00;;;3.60;;
253;SDS011;590;48.772;8.846;2022-10-31T04:38:36;4.13;;;3.90;;
253;SDS011;590;48.772;8.846;2022-10-31T04:41:05;3.87;;;3.67;;
253;SDS011;590;48.772;8.846;2022-10-31T04:43:33;5.40;;;5.00;;
253;SDS011;590;48.772;8.846;2022-10-31T04:46:01;3.77;;;3.57;;
253;SDS011;590;48.772;8.846;2022-10-31T04:48:30;3.80;;;3.30;;
253;SDS011;590;48.772;8.846;2022-10-31T04:50:58;4.30;;;4.00;;
253;SDS011;590;48.772;8.846;2022-10-31T04:53:26;3.80;;;3.33;;
253;SDS011;590;48.772;8.846;2022-10-31T04:55:54;7.40;;;3.80;;
253;SDS011;590;48.772;8.846;2022-10-31T04:58:26;3.90;;;3.70;;
253;SDS011;590;48.772;8.846;2022-10-31T05:00:54;4.17;;;3.93;;
253;SDS011;590;48.772;8.846;2022-10-31T05:03:23;7.90;;;4.83;;
253;SDS011;590;48.772;8.846;2022-10-31T05:05:51;6.67;;;5.57;;
253;SDS011;590;48.772;8.846;2022-10-31T05:08:19;10.73;;;7.27;;
253;SDS011;590;48.772;8.846;2022-10-31T05:10:47;8.63;;;6.87;;
253;SDS011;590;48.772;8.846;2022-10-31T05:13:15;9.20;;;7.07;;
253;SDS011;590;48.772;8.846;2022-10-31T05:15:44;7.33;;;6.43;;
253;SDS011;590;48.772;8.846;2022-10-31T05:18:12;6.13;;;4.90;;
253;SDS011;590;48.772;8.846;2022-10-31T05:20:40;6.10;;;4.80;;
253;SDS011;590;48.772;8.846;2022-10-31T05:23:08;5.77;;;5.03;;
253;SDS011;590;48.772;8.846;2022-10-31T05:25:36;3.80;;;3.57;;
253;SDS011;590;48.772;8.846;2022-10-31T05:28:24;7.00;;;5.30;;
253;SDS011;590;48.772;8.846;2022-10-31T05:30:53;4.10;;;3.80;;
253;SDS011;590;48.772;8.846;2022-10-31T05:33:21;6.87;;;4.50;;
253;SDS011;590;48.772;8.846;2022-10-31T05:35:49;4.43;;;4.10;;
253;SDS011;590;48.772;8.846;2022-10-31T05:38:17;4.80;;;4.50;;
253;SDS011;590;48.772;8.846;2022-10-31T05:40:45;4.53;;;3.37;;
253;SDS011;590;48.772;8.846;2022-10-31T05:43:13;4.70;;;4.40;;
253;SDS011;590;48.772;8.846;2022-10-31T05:45:41;4.10;;;3.90;;
253;SDS011;590;48.772;8.846;2022-10-31T05:48:10;5.80;;;4.07;;
253;SDS011;590;48.772;8.846;2022-10-31T05:50:38;5.97;;;4.40;;
253;SDS011;590;48.772;8.846;2022-10-31T05:53:07;4.80;;;4.40;;
253;SDS011;590;48.772;8.846;2022-10-31T05:55:35;5.00;;;4.70;;
253;SDS011;590;48.772;8.846;2022-10-31T05:58:03;6.43;;;4.13;;
253;SDS011;590;48.772;8.846;2022-10-31T06:00:31;4.20;;;3.93;;
253;SDS011;590;48.772;8.846;2022-10-31T06:03:01;6.80;;;4.00;;
253;SDS011;590;48.772;8.846;2022-10-31T06:05:32;4.37;;;4.10;;
253;SDS011;590;48.772;8.846;2022-10-31T06:08:00;7.47;;;4.27;;
253;SDS011;590;48.772;8.846;2022-10-31T06:10:29;4.32;;;4.05;;
253;SDS011;590;48.772;8.846;2022-10-31T06:12:57;5.40;;;4.05;;
253;SDS011;590;48.772;8.846;2022-10-31T06:15:25;6.88;;;4.95;;
253;SDS011;590;48.772;8.846;2022-10-31T06:18:00;3.65;;;3.47;;
253;SDS011;590;48.772;8.846;2022-10-31T06:20:31;4.70;;;4.40;;
253;SDS011;590;48.772;8.846;2022-10-31T06:23:00;4.37;;;4.07;;
253;SDS011;590;48.772;8.846;2022-10-31T06:25:29;4.17;;;3.67;;
253;SDS011;590;48.772;8.846;2022-10-31T06:27:57;3.80;;;3.60;;
253;SDS011;590;48.772;8.846;2022-10-31T06:30:25;4.43;;;4.13;;
253;SDS011;590;48.772;8.846;2022-10-31T06:32:53;4.83;;;4.00;;
253;SDS011;590;48.772;8.846;2022-10-31T06:35:21;4.33;;;4.07;;
253;SDS011;590;48.772;8.846;2022-10-31T06:37:53;5.33;;;4.20;;
253;SDS011;590;48.772;8.846;2022-10-31T06:40:22;7.00;;;5.13;;
253;SDS011;590;48.772;8.846;2022-10-31T06:42:57;5.30;;;5.00;;
253;SDS011;590;48.772;8.846;2022-10-31T06:45:25;5.43;;;5.00;;
253;SDS011;590;48.772;8.846;2022-10-31T06:47:53;5.50;;;4.40;;
253;SDS011;590;48.772;8.846;2022-10-31T06:50:42;5.40;;;5.10;;
253;SDS011;590;48.772;8.846;2022-10-31T06:53:11;6.10;;;5.60;;
253;SDS011;590;48.772;8.846;2022-10-31T06:55:40;7.60;;;6.22;;
253;SDS011;590;48.772;8.846;2022-10-31T06:58:10;6.33;;;5.97;;
253;SDS011;590;48.772;8.846;2022-10-31T07:00:38;6.00;;;5.40;;
253;SDS011;590;48.772;8.846;2022-10-31T07:03:08;5.43;;;4.60;;
253;SDS011;590;48.772;8.846;2022-10-31T07:05:38;5.73;;;5.03;;
253;SDS011;590;48.772;8.846;2022-10-31T07:08:07;5.70;;;5.40;;
253;SDS011;590;48.772;8.846;2022-10-31T07:10:38;5.87;;;5.57;;
253;SDS011;590;48.772;8.846;2022-10-31T07:13:09;5.70;;;5.33;;
253;SDS011;590;48.772;8.846;2022-10-31T07:15:39;6.57;;;5.50;;
253;SDS011;590;48.772;8.846;2022-10-31T07:18:09;5.73;;;5.13;;
253;SDS011;590;48.772;8.846;2022-10-31T07:20:38;5.87;;;5.57;;
253;SDS011;590;48.772;8.846;2022-10-31T07:23:07;6.03;;;5.73;;
253;SDS011;590;48.772;8.846;2022-10-31T07:25:38;7.80;;;7.40;;
253;SDS011;590;48.772;8.846;2022-10-31T07:28:06;7.10;;;6.30;;
253;SDS011;590;48.772;8.846;2022-10-31T07:30:34;7.80;;;7.43;;
253;SDS011;590;48.772;8.846;2022-10-31T07:33:03;10.30;;;9.77;;
253;SDS011;590;48.772;8.846;2022-10-31T07:35:31;13.17;;;11.30;;
253;SDS011;590;48.772;8.846;2022-10-31T07:38:07;12.80;;;12.10;;
253;SDS011;590;48.772;8.846;2022-10-31T07:40:37;8.43;;;7.97;;
253;SDS011;590;48.772;8.846;2022-10-31T07:43:05;8.87;;;7.30;;
253;SDS011;590;48.772;8.846;2022-10-31T07:45:39;7.97;;;7.57;;
253;SDS011;590;48.772;8.846;2022-10-31T07:48:07;9.10;;;7.77;;
253;SDS011;590;48.772;8.846;2022-10-31T07:50:35;7.70;;;7.00;;
253;SDS011;590;48.772;8.846;2022-10-31T07:53:04;10.43;;;7.77;;
253;SDS011;590;48.772;8.846;2022-10-31T07:55:34;12.17;;;11.57;;
253;SDS011;590;48.772;8.846;2022-10-31T07:58:05;11.87;;;11.27;;
253;SDS011;590;48.772;8.846;2022-10-31T08:00:35;11.17;;;10.57;;
253;SDS011;590;48.772;8.846;2022-10-31T08:03:04;10.87;;;10.23;;
253;SDS011;590;48.772;8.846;2022-10-31T08:05:33;10.83;;;10.27;;
253;SDS011;590;48.772;8.846;2022-10-31T08:08:02;10.10;;;9.47;;
253;SDS011;590;48.772;8.846;2022-10-31T08:10:31;9.57;;;9.03;;
253;SDS011;590;48.772;8.846;2022-10-31T08:13:01;8.30;;;7.87;;
253;SDS011;590;48.772;8.846;2022-10-31T08:15:32;8.53;;;8.03;;
253;SDS011;590;48.772;8.846;2022-10-31T08:18:03;7.20;;;6.80;;
253;SDS011;590;48.772;8.846;2022-10-31T08:20:31;6.70;;;6.30;;
253;SDS011;590;48.772;8.846;2022-10-31T08:23:00;7.10;;;6.70;;
253;SDS011;590;48.772;8.846;2022-10-31T08:25:31;6.43;;;6.03;;
253;SDS011;590;48.772;8.846;2022-10-31T08:28:04;8.57;;;8.07;;
253;SDS011;590;48.772;8.846;2022-10-31T08:30:34;7.07;;;6.70;;
253;SDS011;590;48.772;8.846;2022-10-31T08:33:04;5.17;;;4.87;;
253;SDS011;590;48.772;8.846;2022-10-31T08:35:33;6.10;;;5.80;;
253;SDS011;590;48.772;8.846;2022-10-31T08:38:01;5.77;;;5.47;;
253;SDS011;590;48.772;8.846;2022-10-31T08:40:30;9.70;;;6.57;;
253;SDS011;590;48.772;8.846;2022-10-31T08:43:00;6.63;;;6.23;;
253;SDS011;590;48.772;8.846;2022-10-31T08:45:29;5.70;;;5.40;;
253;SDS011;590;48.772;8.846;2022-10-31T08:48:01;6.57;;;6.20;;
253;SDS011;590;48.772;8.846;2022-10-31T08:50:31;5.83;;;5.57;;
253;SDS011;590;48.772;8.846;2022-10-31T08:53:00;6.07;;;5.60;;
253;SDS011;590;48.772;8.846;2022-10-31T08:55:32;7.90;;;6.20;;
253;SDS011;590;48.772;8.846;2022-10-31T08:58:13;6.70;;;6.23;;
253;SDS011;590;48.772;8.846;2022-10-31T09:00:42;6.40;;;6.00;;
253;SDS011;590;48.772;8.846;2022-10-31T09:03:14;7.00;;;6.60;;
253;SDS011;590;48.772;8.846;2022-10-31T09:05:43;7.07;;;6.67;;
253;SDS011;590;48.772;8.846;2022-10-31T09:08:12;6.80;;;6.40;;
253;SDS011;590;48.772;8.846;2022-10-31T09:10:42;5.43;;;5.13;;
253;SDS011;590;48.772;8.846;2022-10-31T09:13:12;6.57;;;5.87;;
253;SDS011;590;48.772;8.846;2022-10-31T09:15:41;8.27;;;7.87;;
253;SDS011;590;48.772;8.846;2022-10-31T09:18:12;8.80;;;8.30;;
253;SDS011;590;48.772;8.846;2022-10-31T09:20:43;8.83;;;8.33;;
253;SDS011;590;48.772;8.846;2022-10-31T09:23:14;7.17;;;6.77;;
253;SDS011;590;48.772;8.846;2022-10-31T09:26:05;5.73;;;5.40;;
253;SDS011;590;48.772;8.846;2022-10-31T09:28:37;6.93;;;6.27;;
253;SDS011;590;48.772;8.846;2022-10-31T09:32:06;8.37;;;6.73;;
253;SDS011;590;48.772;8.846;2022-10-31T09:35:03;6.63;;;6.17;;
253;SDS011;590;48.772;8.846;2022-10-31T09:37:31;6.20;;;5.90;;
253;SDS011;590;48.772;8.846;2022-10-31T09:40:32;7.50;;;5.67;;
253;SDS011;590;48.772;8.846;2022-10-31T09:43:03;6.90;;;5.63;;
253;SDS011;590;48.772;8.846;2022-10-31T09:45:42;5.30;;;4.80;;
253;SDS011;590;48.772;8.846;2022-10-31T09:51:15;6.00;;;5.70;;
253;SDS011;590;48.772;8.846;2022-10-31T09:53:48;10.43;;;6.37;;
253;SDS011;590;48.772;8.846;2022-10-31T09:56:25;7.37;;;5.87;;
253;SDS011;590;48.772;8.846;2022-10-31T10:02:02;5.90;;;5.27;;
253;SDS011;590;48.772;8.846;2022-10-31T10:04:37;5.80;;;5.50;;
253;SDS011;590;48.772;8.846;2022-10-31T10:07:12;5.87;;;5.17;;
253;SDS011;590;48.772;8.846;2022-10-31T10:09:46;6.43;;;4.50;;
253;SDS011;590;48.772;8.846;2022-10-31T10:12:16;4.97;;;4.70;;
253;SDS011;590;48.772;8.846;2022-10-31T10:14:54;7.87;;;5.80;;
253;SDS011;590;48.772;8.846;2022-10-31T10:17:38;5.83;;;4.90;;
253;SDS011;590;48.772;8.846;2022-10-31T10:20:16;6.33;;;4.93;;
253;SDS011;590;48.772;8.846;2022-10-31T10:22:57;5.60;;;5.30;;
253;SDS011;590;48.772;8.846;2022-10-31T10:25:34;5.30;;;5.00;;
253;SDS011;590;48.772;8.846;2022-10-31T10:28:09;4.70;;;4.40;;
253;SDS011;590;48.772;8.846;2022-10-31T10:30:44;5.30;;;4.80;;
253;SDS011;590;48.772;8.846;2022-10-31T10:33:18;6.00;;;5.70;;
253;SDS011;590;48.772;8.846;2022-10-31T10:35:49;7.57;;;5.50;;
253;SDS011;590;48.772;8.846;2022-10-31T10:38:23;6.60;;;5.33;;
253;SDS011;590;48.772;8.846;2022-10-31T10:40:57;6.40;;;6.00;;
253;SDS011;590;48.772;8.846;2022-10-31T10:43:30;5.90;;;5.60;;
253;SDS011;590;48.772;8.846;2022-10-31T10:46:05;6.37;;;5.83;;
253;SDS011;590;48.772;8.846;2022-10-31T10:49:03;5.67;;;4.47;;
253;SDS011;590;48.772;8.846;2022-10-31T10:51:52;6.10;;;5.00;;
253;SDS011;590;48.772;8.846;2022-10-31T10:54:53;4.43;;;4.13;;
253;SDS011;590;48.772;8.846;2022-10-31T10:57:32;7.43;;;4.40;;
253;SDS011;590;48.772;8.846;2022-10-31T11:00:17;5.90;;;4.73;;
253;SDS011;590;48.772;8.846;2022-10-31T11:02:47;4.47;;;4.20;;
253;SDS011;590;48.772;8.846;2022-10-31T11:05:19;4.00;;;3.80;;
253;SDS011;590;48.772;8.846;2022-10-31T11:07:51;5.20;;;4.40;;
253;SDS011;590;48.772;8.846;2022-10-31T11:10:20;4.53;;;4.23;;
253;SDS011;590;48.772;8.846;2022-10-31T11:15:51;4.97;;;4.20;;
253;SDS011;590;48.772;8.846;2022-10-31T11:18:24;5.00;;;4.70;;
253;SDS011;590;48.772;8.846;2022-10-31T11:20:55;5.27;;;4.27;;
253;SDS011;590;48.772;8.846;2022-10-31T11:23:24;4.50;;;4.20;;
253;SDS011;590;48.772;8.846;2022-10-31T11:25:56;5.20;;;4.90;;
253;SDS011;590;48.772;8.846;2022-10-31T11:28:26;6.17;;;4.73;;
253;SDS011;590;48.772;8.846;2022-10-31T11:30:57;5.10;;;4.80;;
253;SDS011;590;48.772;8.846;2022-10-31T11:33:28;6.00;;;5.40;;
253;SDS011;590;48.772;8.846;2022-10-31T11:35:58;7.67;;;4.80;;
253;SDS011;590;48.772;8.846;2022-10-31T11:38:30;6.73;;;4.90;;
253;SDS011;590;48.772;8.846;2022-10-31T11:41:05;4.70;;;4.43;;
253;SDS011;590;48.772;8.846;2022-10-31T11:43:45;5.87;;;4.60;;
253;SDS011;590;48.772;8.846;2022-10-31T11:46:17;9.27;;;6.13;;
253;SDS011;590;48.772;8.846;2022-10-31T11:48:49;8.20;;;5.27;;
253;SDS011;590;48.772;8.846;2022-10-31T11:51:20;8.10;;;4.50;;
253;SDS011;590;48.772;8.846;2022-10-31T11:53:50;6.00;;;4.97;;
253;SDS011;590;48.772;8.846;2022-10-31T11:56:26;9.03;;;5.50;;
253;SDS011;590;48.772;8.846;2022-10-31T11:58:55;10.80;;;4.53;;
253;SDS011;590;48.772;8.846;2022-10-31T12:01:24;5.67;;;4.53;;
253;SDS011;590;48.772;8.846;2022-10-31T12:03:54;5.87;;;5.17;;
253;SDS011;590;48.772;8.846;2022-10-31T12:06:30;7.00;;;5.00;;
253;SDS011;590;48.772;8.846;2022-10-31T12:09:01;5.63;;;4.87;;
253;SDS011;590;48.772;8.846;2022-10-31T12:11:37;9.10;;;5.87;;
253;SDS011;590;48.772;8.846;2022-10-31T12:14:15;8.20;;;5.63;;
253;SDS011;590;48.772;8.846;2022-10-31T12:16:59;5.33;;;4.73;;
253;SDS011;590;48.772;8.846;2022-10-31T12:19:35;6.50;;;5.20;;
253;SDS011;590;48.772;8.846;2022-10-31T12:22:12;6.10;;;4.83;;
253;SDS011;590;48.772;8.846;2022-10-31T12:24:50;5.77;;;5.50;;
253;SDS011;590;48.772;8.846;2022-10-31T12:27:31;9.50;;;5.43;;
253;SDS011;590;48.772;8.846;2022-10-31T12:30:17;6.10;;;5.17;;
253;SDS011;590;48.772;8.846;2022-10-31T12:33:11;5.63;;;4.67;;
253;SDS011;590;48.772;8.846;2022-10-31T12:35:51;4.10;;;3.90;;
253;SDS011;590;48.772;8.846;2022-10-31T12:38:39;5.80;;;4.43;;
253;SDS011;590;48.772;8.846;2022-10-31T12:41:20;5.10;;;4.80;;
253;SDS011;590;48.772;8.846;2022-10-31T12:44:00;5.70;;;5.07;;
253;SDS011;590;48.772;8.846;2022-10-31T12:46:48;6.13;;;4.90;;
253;SDS011;590;48.772;8.846;2022-10-31T12:49:30;4.77;;;4.50;;
253;SDS011;590;48.772;8.846;2022-10-31T12:52:11;6.97;;;5.33;;
253;SDS011;590;48.772;8.846;2022-10-31T12:54:54;6.67;;;4.80;;
253;SDS011;590;48.772;8.846;2022-10-31T12:57:31;6.50;;;5.47;;
253;SDS011;590;48.772;8.846;2022-10-31T13:00:07;6.23;;;5.00;;
253;SDS011;590;48.772;8.846;2022-10-31T13:02:41;6.13;;;5.20;;
253;SDS011;590;48.772;8.846;2022-10-31T13:05:24;6.20;;;5.07;;
253;SDS011;590;48.772;8.846;2022-10-31T13:08:00;5.07;;;4.73;;
253;SDS011;590;48.772;8.846;2022-10-31T13:10:34;5.53;;;5.17;;
253;SDS011;590;48.772;8.846;2022-10-31T13:13:09;11.70;;;5.30;;
253;SDS011;590;48.772;8.846;2022-10-31T13:15:47;5.03;;;4.23;;
253;SDS011;590;48.772;8.846;2022-10-31T13:18:19;4.87;;;4.37;;
253;SDS011;590;48.772;8.846;2022-10-31T13:20:52;6.77;;;4.53;;
253;SDS011;590;48.772;8.846;2022-10-31T13:23:24;4.03;;;3.83;;
253;SDS011;590;48.772;8.846;2022-10-31T13:26:18;6.53;;;6.10;;
253;SDS011;590;48.772;8.846;2022-10-31T13:28:52;7.00;;;5.53;;
253;SDS011;590;48.772;8.846;2022-10-31T13:31:28;6.47;;;5.50;;
253;SDS011;590;48.772;8.846;2022-10-31T13:33:57;7.57;;;6.17;;
253;SDS011;590;48.772;8.846;2022-10-31T13:36:31;6.00;;;5.67;;
253;SDS011;590;48.772;8.846;2022-10-31T13:39:17;4.93;;;4.50;;
253;SDS011;590;48.772;8.846;2022-10-31T13:41:53;7.87;;;5.23;;
253;SDS011;590;48.772;8.846;2022-10-31T13:44:27;6.73;;;5.03;;
253;SDS011;590;48.772;8.846;2022-10-31T13:47:19;8.00;;;4.70;;
253;SDS011;590;48.772;8.846;2022-10-31T13:49:51;6.90;;;4.80;;
253;SDS011;590;48.772;8.846;2022-10-31T13:52:30;5.73;;;5.43;;
253;SDS011;590;48.772;8.846;2022-10-31T13:54:58;10.00;;;5.17;;
253;SDS011;590;48.772;8.846;2022-10-31T13:57:28;5.60;;;5.33;;
253;SDS011;590;48.772;8.846;2022-10-31T14:00:01;7.50;;;6.27;;
253;SDS011;590;48.772;8.846;2022-10-31T14:02:33;5.87;;;5.23;;
253;SDS011;590;48.772;8.846;2022-10-31T14:05:04;8.03;;;6.50;;
253;SDS011;590;48.772;8.846;2022-10-31T14:07:43;6.70;;;6.30;;
253;SDS011;590;48.772;8.846;2022-10-31T14:10:20;6.33;;;5.97;;
253;SDS011;590;48.772;8.846;2022-10-31T14:12:52;6.70;;;6.07;;
253;SDS011;590;48.772;8.846;2022-10-31T14:15:29;6.90;;;6.10;;
253;SDS011;590;48.772;8.846;2022-10-31T14:18:00;6.90;;;6.13;;
253;SDS011;590;48.772;8.846;2022-10-31T14:20:37;5.60;;;5.30;;
253;SDS011;590;48.772;8.846;2022-10-31T14:26:06;10.63;;;5.27;;
253;SDS011;590;48.772;8.846;2022-10-31T14:28:45;9.07;;;5.33;;
253;SDS011;590;48.772;8.846;2022-10-31T14:31:27;6.50;;;4.40;;
253;SDS011;590;48.772;8.846;2022-10-31T14:34:04;5.50;;;4.60;;
253;SDS011;590;48.772;8.846;2022-10-31T14:36:49;5.77;;;5.47;;
253;SDS011;590;48.772;8.846;2022-10-31T14:39:41;6.67;;;5.10;;
253;SDS011;590;48.772;8.846;2022-10-31T14:42:29;6.53;;;5.30;;
253;SDS011;590;48.772;8.846;2022-10-31T14:45:14;7.63;;;5.83;;
253;SDS011;590;48.772;8.846;2022-10-31T14:47:51;5.10;;;4.70;;
253;SDS011;590;48.772;8.846;2022-10-31T14:50:40;6.20;;;4.90;;
253;SDS011;590;48.772;8.846;2022-10-31T14:53:14;5.10;;;4.27;;
253;SDS011;590;48.772;8.846;2022-10-31T14:55:47;5.37;;;4.67;;
253;SDS011;590;48.772;8.846;2022-10-31T14:58:20;6.87;;;4.83;;
253;SDS011;590;48.772;8.846;2022-10-31T15:00:51;5.57;;;4.43;;
253;SDS011;590;48.772;8.846;2022-10-31T15:03:22;4.50;;;4.20;;
253;SDS011;590;48.772;8.846;2022-10-31T15:05:56;6.93;;;4.67;;
253;SDS011;590;48.772;8.846;2022-10-31T15:08:32;6.10;;;4.90;;
253;SDS011;590;48.772;8.846;2022-10-31T15:11:11;6.10;;;5.30;;
253;SDS011;590;48.772;8.846;2022-10-31T15:13:41;5.10;;;4.80;;
253;SDS011;590;48.772;8.846;2022-10-31T15:16:11;5.80;;;5.50;;
253;SDS011;590;48.772;8.846;2022-10-31T15:18:50;8.67;;;5.83;;
253;SDS011;590;48.772;8.846;2022-10-31T15:21:22;5.47;;;5.03;;
253;SDS011;590;48.772;8.846;2022-10-31T15:23:52;8.00;;;5.00;;
253;SDS011;590;48.772;8.846;2022-10-31T15:26:23;5.43;;;4.90;;
253;SDS011;590;48.772;8.846;2022-10-31T15:28:57;6.80;;;4.90;;
253;SDS011;590;48.772;8.846;2022-10-31T15:31:27;5.60;;;5.00;;
253;SDS011;590;48.772;8.846;2022-10-31T15:33:55;9.30;;;5.40;;
253;SDS011;590;48.772;8.846;2022-10-31T15:36:29;9.17;;;5.30;;
253;SDS011;590;48.772;8.846;2022-10-31T15:39:02;14.23;;;7.10;;
253;SDS011;590;48.772;8.846;2022-10-31T15:41:31;10.70;;;6.70;;
253;SDS011;590;48.772;8.846;2022-10-31T15:44:04;8.70;;;6.20;;
253;SDS011;590;48.772;8.846;2022-10-31T15:46:38;7.50;;;5.83;;
253;SDS011;590;48.772;8.846;2022-10-31T15:49:23;12.23;;;5.80;;
253;SDS011;590;48.772;8.846;2022-10-31T15:51:58;7.70;;;5.63;;
253;SDS011;590;48.772;8.846;2022-10-31T15:54:32;7.67;;;5.50;;
253;SDS011;590;48.772;8.846;2022-10-31T15:57:02;7.77;;;6.60;;
253;SDS011;590;48.772;8.846;2022-10-31T15:59:31;6.77;;;5.07;;
253;SDS011;590;48.772;8.846;2022-10-31T16:01:59;10.40;;;5.70;;
253;SDS011;590;48.772;8.846;2022-10-31T16:04:29;7.33;;;5.47;;
253;SDS011;590;48.772;8.846;2022-10-31T16:07:02;8.13;;;5.60;;
253;SDS011;590;48.772;8.846;2022-10-31T16:09:51;6.97;;;6.00;;
253;SDS011;590;48.772;8.846;2022-10-31T16:12:21;10.83;;;6.20;;
253;SDS011;590;48.772;8.846;2022-10-31T16:14:50;7.40;;;5.87;;
253;SDS011;590;48.772;8.846;2022-10-31T16:17:20;9.60;;;7.97;;
253;SDS011;590;48.772;8.846;2022-10-31T16:19:52;7.45;;;6.82;;
253;SDS011;590;48.772;8.846;2022-10-31T16:22:25;9.93;;;7.70;;
253;SDS011;590;48.772;8.846;2022-10-31T16:24:57;9.23;;;7.40;;
253;SDS011;590;48.772;8.846;2022-10-31T16:27:30;10.90;;;6.87;;
253;SDS011;590;48.772;8.846;2022-10-31T16:30:00;8.60;;;6.13;;
253;SDS011;590;48.772;8.846;2022-10-31T16:32:32;8.27;;;6.23;;
253;SDS011;590;48.772;8.846;2022-10-31T16:35:16;8.07;;;7.30;;
253;SDS011;590;48.772;8.846;2022-10-31T16:37:51;8.27;;;7.60;;
253;SDS011;590;48.772;8.846;2022-10-31T16:40:20;10.60;;;10.00;;